sensor_id;sensor_type;location;lat;lon;timestamp;P1;durP1;ratioP1;P2;durP2;ratioP2
72635;SDS011;60679;48.888;15.544;2024-02-26T00:00:09;126.43;;;61.70;;
72635;SDS011;60679;48.888;15.544;2024-02-26T00:02:36;127.50;;;59.92;;
72635;SDS011;60679;48.888;15.544;2024-02-26T00:05:04;115.47;;;58.80;;
72635;SDS011;60679;48.888;15.544;2024-02-26T00:07:30;124.40;;;60.70;;
72635;SDS011;60679;48.888;15.544;2024-02-26T00:09:56;117.00;;;58.27;;
72635;SDS011;60679;48.888;15.544;2024-02-26T00:12:21;119.65;;;59.03;;
72635;SDS011;60679;48.888;15.544;2024-02-26T00:14:46;121.87;;;60.23;;
72635;SDS011;60679;48.888;15.544;2024-02-26T00:17:14;121.33;;;60.27;;
72635;SDS011;60679;48.888;15.544;2024-02-26T00:19:40;132.00;;;63.60;;
72635;SDS011;60679;48.888;15.544;2024-02-26T00:22:06;135.13;;;65.63;;
72635;SDS011;60679;48.888;15.544;2024-02-26T00:24:31;122.10;;;60.30;;
72635;SDS011;60679;48.888;15.544;2024-02-26T00:26:57;124.93;;;60.60;;
72635;SDS011;60679;48.888;15.544;2024-02-26T00:29:22;125.97;;;62.37;;
72635;SDS011;60679;48.888;15.544;2024-02-26T00:31:48;120.72;;;59.47;;
72635;SDS011;60679;48.888;15.544;2024-02-26T00:34:13;124.33;;;61.73;;
72635;SDS011;60679;48.888;15.544;2024-02-26T00:36:39;117.70;;;58.73;;
72635;SDS011;60679;48.888;15.544;2024-02-26T00:39:04;119.85;;;58.67;;
72635;SDS011;60679;48.888;15.544;2024-02-26T00:41:29;122.10;;;60.77;;
72635;SDS011;60679;48.888;15.544;2024-02-26T00:43:55;106.03;;;54.97;;
72635;SDS011;60679;48.888;15.544;2024-02-26T00:46:20;119.63;;;59.63;;
72635;SDS011;60679;48.888;15.544;2024-02-26T00:48:46;124.37;;;61.03;;
72635;SDS011;60679;48.888;15.544;2024-02-26T00:51:11;117.30;;;58.83;;
72635;SDS011;60679;48.888;15.544;2024-02-26T00:53:36;112.50;;;56.60;;
72635;SDS011;60679;48.888;15.544;2024-02-26T00:56:02;111.22;;;56.83;;
72635;SDS011;60679;48.888;15.544;2024-02-26T00:58:27;113.47;;;57.33;;
72635;SDS011;60679;48.888;15.544;2024-02-26T01:00:53;111.53;;;56.17;;
72635;SDS011;60679;48.888;15.544;2024-02-26T01:03:18;103.60;;;53.90;;
72635;SDS011;60679;48.888;15.544;2024-02-26T01:05:44;107.45;;;54.95;;
72635;SDS011;60679;48.888;15.544;2024-02-26T01:08:10;106.43;;;54.93;;
72635;SDS011;60679;48.888;15.544;2024-02-26T01:10:35;109.75;;;55.80;;
72635;SDS011;60679;48.888;15.544;2024-02-26T01:13:01;112.13;;;56.63;;
72635;SDS011;60679;48.888;15.544;2024-02-26T01:15:26;113.43;;;57.57;;
72635;SDS011;60679;48.888;15.544;2024-02-26T01:17:52;113.00;;;57.30;;
72635;SDS011;60679;48.888;15.544;2024-02-26T01:20:18;108.97;;;55.97;;
72635;SDS011;60679;48.888;15.544;2024-02-26T01:22:43;115.00;;;58.08;;
72635;SDS011;60679;48.888;15.544;2024-02-26T01:25:09;111.83;;;57.07;;
72635;SDS011;60679;48.888;15.544;2024-02-26T01:27:38;115.57;;;58.55;;
72635;SDS011;60679;48.888;15.544;2024-02-26T01:30:06;110.03;;;56.65;;
72635;SDS011;60679;48.888;15.544;2024-02-26T01:32:32;118.18;;;58.45;;
72635;SDS011;60679;48.888;15.544;2024-02-26T01:34:57;111.10;;;57.53;;
72635;SDS011;60679;48.888;15.544;2024-02-26T01:37:23;114.27;;;58.13;;
72635;SDS011;60679;48.888;15.544;2024-02-26T01:39:48;109.40;;;56.27;;
72635;SDS011;60679;48.888;15.544;2024-02-26T01:42:13;116.88;;;59.05;;
72635;SDS011;60679;48.888;15.544;2024-02-26T01:44:39;109.80;;;56.57;;
72635;SDS011;60679;48.888;15.544;2024-02-26T01:47:09;108.53;;;55.83;;
72635;SDS011;60679;48.888;15.544;2024-02-26T01:49:37;104.75;;;55.15;;
72635;SDS011;60679;48.888;15.544;2024-02-26T01:52:04;106.30;;;55.65;;
72635;SDS011;60679;48.888;15.544;2024-02-26T01:54:31;108.82;;;55.90;;
72635;SDS011;60679;48.888;15.544;2024-02-26T01:56:59;108.60;;;55.93;;
72635;SDS011;60679;48.888;15.544;2024-02-26T01:59:25;109.63;;;56.50;;
72635;SDS011;60679;48.888;15.544;2024-02-26T02:01:52;111.87;;;57.57;;
72635;SDS011;60679;48.888;15.544;2024-02-26T02:04:20;109.63;;;56.80;;
72635;SDS011;60679;48.888;15.544;2024-02-26T02:06:48;108.65;;;56.10;;
72635;SDS011;60679;48.888;15.544;2024-02-26T02:09:13;109.18;;;56.60;;
72635;SDS011;60679;48.888;15.544;2024-02-26T02:11:39;111.97;;;57.75;;
72635;SDS011;60679;48.888;15.544;2024-02-26T02:14:04;111.07;;;57.83;;
72635;SDS011;60679;48.888;15.544;2024-02-26T02:16:30;111.90;;;56.95;;
72635;SDS011;60679;48.888;15.544;2024-02-26T02:18:56;114.13;;;57.57;;
72635;SDS011;60679;48.888;15.544;2024-02-26T02:21:23;104.97;;;55.03;;
72635;SDS011;60679;48.888;15.544;2024-02-26T02:23:48;111.43;;;57.30;;
72635;SDS011;60679;48.888;15.544;2024-02-26T02:26:14;113.47;;;58.30;;
72635;SDS011;60679;48.888;15.544;2024-02-26T02:28:40;104.78;;;55.00;;
72635;SDS011;60679;48.888;15.544;2024-02-26T02:31:06;74.07;;;41.35;;
72635;SDS011;60679;48.888;15.544;2024-02-26T02:33:32;90.50;;;47.67;;
72635;SDS011;60679;48.888;15.544;2024-02-26T02:35:59;80.22;;;45.72;;
72635;SDS011;60679;48.888;15.544;2024-02-26T02:38:24;79.57;;;46.67;;
72635;SDS011;60679;48.888;15.544;2024-02-26T02:40:53;78.72;;;47.38;;
72635;SDS011;60679;48.888;15.544;2024-02-26T02:43:19;84.13;;;49.22;;
72635;SDS011;60679;48.888;15.544;2024-02-26T02:45:44;34.57;;;22.50;;
72635;SDS011;60679;48.888;15.544;2024-02-26T02:48:10;77.00;;;44.43;;
72635;SDS011;60679;48.888;15.544;2024-02-26T02:50:36;77.10;;;46.05;;
72635;SDS011;60679;48.888;15.544;2024-02-26T02:53:01;80.07;;;47.27;;
72635;SDS011;60679;48.888;15.544;2024-02-26T02:55:27;86.37;;;49.30;;
72635;SDS011;60679;48.888;15.544;2024-02-26T02:57:52;82.65;;;47.35;;
72635;SDS011;60679;48.888;15.544;2024-02-26T03:00:18;83.77;;;47.90;;
72635;SDS011;60679;48.888;15.544;2024-02-26T03:02:43;80.87;;;47.20;;
72635;SDS011;60679;48.888;15.544;2024-02-26T03:05:10;89.57;;;50.90;;
72635;SDS011;60679;48.888;15.544;2024-02-26T03:07:35;84.30;;;48.07;;
72635;SDS011;60679;48.888;15.544;2024-02-26T03:10:01;83.15;;;47.78;;
72635;SDS011;60679;48.888;15.544;2024-02-26T03:12:26;80.20;;;46.63;;
72635;SDS011;60679;48.888;15.544;2024-02-26T03:14:52;88.95;;;50.30;;
72635;SDS011;60679;48.888;15.544;2024-02-26T03:17:19;86.87;;;49.60;;
72635;SDS011;60679;48.888;15.544;2024-02-26T03:19:45;85.18;;;49.30;;
72635;SDS011;60679;48.888;15.544;2024-02-26T03:22:18;75.15;;;45.75;;
72635;SDS011;60679;48.888;15.544;2024-02-26T03:24:43;68.30;;;42.73;;
72635;SDS011;60679;48.888;15.544;2024-02-26T03:27:09;60.95;;;40.75;;
72635;SDS011;60679;48.888;15.544;2024-02-26T03:29:35;85.87;;;48.40;;
72635;SDS011;60679;48.888;15.544;2024-02-26T03:32:00;84.97;;;48.30;;
72635;SDS011;60679;48.888;15.544;2024-02-26T03:34:26;76.10;;;44.90;;
72635;SDS011;60679;48.888;15.544;2024-02-26T03:36:52;114.53;;;58.40;;
72635;SDS011;60679;48.888;15.544;2024-02-26T03:39:17;87.85;;;49.72;;
72635;SDS011;60679;48.888;15.544;2024-02-26T03:41:43;61.97;;;40.77;;
72635;SDS011;60679;48.888;15.544;2024-02-26T03:44:08;80.13;;;47.33;;
72635;SDS011;60679;48.888;15.544;2024-02-26T03:46:33;71.27;;;44.03;;
72635;SDS011;60679;48.888;15.544;2024-02-26T03:48:59;104.87;;;54.40;;
72635;SDS011;60679;48.888;15.544;2024-02-26T03:51:24;79.33;;;46.97;;
72635;SDS011;60679;48.888;15.544;2024-02-26T03:53:49;78.43;;;43.70;;
72635;SDS011;60679;48.888;15.544;2024-02-26T03:56:15;39.67;;;32.17;;
72635;SDS011;60679;48.888;15.544;2024-02-26T03:58:40;86.53;;;46.40;;
72635;SDS011;60679;48.888;15.544;2024-02-26T04:01:09;62.63;;;41.13;;
72635;SDS011;60679;48.888;15.544;2024-02-26T04:03:34;71.50;;;44.55;;
72635;SDS011;60679;48.888;15.544;2024-02-26T04:06:00;67.82;;;42.72;;
72635;SDS011;60679;48.888;15.544;2024-02-26T04:08:25;83.10;;;47.23;;
72635;SDS011;60679;48.888;15.544;2024-02-26T04:10:51;99.00;;;52.73;;
72635;SDS011;60679;48.888;15.544;2024-02-26T04:13:17;90.80;;;49.33;;
72635;SDS011;60679;48.888;15.544;2024-02-26T04:15:42;127.97;;;62.53;;
72635;SDS011;60679;48.888;15.544;2024-02-26T04:18:08;103.93;;;54.23;;
72635;SDS011;60679;48.888;15.544;2024-02-26T04:20:33;130.95;;;63.45;;
72635;SDS011;60679;48.888;15.544;2024-02-26T04:22:59;120.35;;;59.88;;
72635;SDS011;60679;48.888;15.544;2024-02-26T04:25:24;148.10;;;88.93;;
72635;SDS011;60679;48.888;15.544;2024-02-26T04:27:49;120.87;;;61.10;;
72635;SDS011;60679;48.888;15.544;2024-02-26T04:30:15;145.57;;;67.53;;
72635;SDS011;60679;48.888;15.544;2024-02-26T04:32:42;127.53;;;61.05;;
72635;SDS011;60679;48.888;15.544;2024-02-26T04:35:07;95.80;;;52.40;;
72635;SDS011;60679;48.888;15.544;2024-02-26T04:37:33;113.90;;;57.10;;
72635;SDS011;60679;48.888;15.544;2024-02-26T04:39:58;113.60;;;58.00;;
72635;SDS011;60679;48.888;15.544;2024-02-26T04:42:24;150.77;;;70.05;;
72635;SDS011;60679;48.888;15.544;2024-02-26T04:44:50;126.88;;;61.65;;
72635;SDS011;60679;48.888;15.544;2024-02-26T04:47:15;157.05;;;71.38;;
72635;SDS011;60679;48.888;15.544;2024-02-26T04:49:41;142.73;;;67.10;;
72635;SDS011;60679;48.888;15.544;2024-02-26T04:52:06;124.83;;;60.60;;
72635;SDS011;60679;48.888;15.544;2024-02-26T04:54:31;135.07;;;65.63;;
72635;SDS011;60679;48.888;15.544;2024-02-26T04:56:57;180.30;;;84.33;;
72635;SDS011;60679;48.888;15.544;2024-02-26T04:59:22;198.30;;;91.70;;
72635;SDS011;60679;48.888;15.544;2024-02-26T05:01:47;110.25;;;57.28;;
72635;SDS011;60679;48.888;15.544;2024-02-26T05:04:13;154.85;;;70.65;;
72635;SDS011;60679;48.888;15.544;2024-02-26T05:06:38;109.97;;;55.27;;
72635;SDS011;60679;48.888;15.544;2024-02-26T05:09:03;103.40;;;53.83;;
72635;SDS011;60679;48.888;15.544;2024-02-26T05:11:29;179.17;;;81.93;;
72635;SDS011;60679;48.888;15.544;2024-02-26T05:13:54;156.90;;;74.00;;
72635;SDS011;60679;48.888;15.544;2024-02-26T05:16:20;173.27;;;78.40;;
72635;SDS011;60679;48.888;15.544;2024-02-26T05:18:46;170.68;;;78.18;;
72635;SDS011;60679;48.888;15.544;2024-02-26T05:21:12;180.90;;;80.63;;
72635;SDS011;60679;48.888;15.544;2024-02-26T05:23:37;194.30;;;87.17;;
72635;SDS011;60679;48.888;15.544;2024-02-26T05:26:03;184.10;;;82.33;;
72635;SDS011;60679;48.888;15.544;2024-02-26T05:28:28;197.43;;;89.20;;
72635;SDS011;60679;48.888;15.544;2024-02-26T05:30:53;173.68;;;78.85;;
72635;SDS011;60679;48.888;15.544;2024-02-26T05:33:19;76.30;;;45.17;;
72635;SDS011;60679;48.888;15.544;2024-02-26T05:35:44;179.87;;;81.93;;
72635;SDS011;60679;48.888;15.544;2024-02-26T05:38:10;188.97;;;85.27;;
72635;SDS011;60679;48.888;15.544;2024-02-26T05:40:35;111.10;;;56.40;;
72635;SDS011;60679;48.888;15.544;2024-02-26T05:43:00;137.03;;;65.03;;
72635;SDS011;60679;48.888;15.544;2024-02-26T05:45:26;164.68;;;76.57;;
72635;SDS011;60679;48.888;15.544;2024-02-26T05:47:51;187.37;;;84.73;;
72635;SDS011;60679;48.888;15.544;2024-02-26T05:50:17;185.90;;;84.53;;
72635;SDS011;60679;48.888;15.544;2024-02-26T05:52:42;173.80;;;78.57;;
72635;SDS011;60679;48.888;15.544;2024-02-26T05:55:08;175.23;;;78.75;;
72635;SDS011;60679;48.888;15.544;2024-02-26T05:57:34;174.53;;;77.97;;
72635;SDS011;60679;48.888;15.544;2024-02-26T06:00:03;178.27;;;80.47;;
72635;SDS011;60679;48.888;15.544;2024-02-26T06:02:32;203.10;;;90.25;;
72635;SDS011;60679;48.888;15.544;2024-02-26T06:04:57;195.65;;;85.90;;
72635;SDS011;60679;48.888;15.544;2024-02-26T06:07:23;173.27;;;78.73;;
72635;SDS011;60679;48.888;15.544;2024-02-26T06:09:49;142.85;;;67.88;;
72635;SDS011;60679;48.888;15.544;2024-02-26T06:12:14;119.17;;;58.47;;
72635;SDS011;60679;48.888;15.544;2024-02-26T06:14:41;70.73;;;46.77;;
72635;SDS011;60679;48.888;15.544;2024-02-26T06:17:08;61.60;;;42.67;;
72635;SDS011;60679;48.888;15.544;2024-02-26T06:19:34;74.63;;;44.67;;
72635;SDS011;60679;48.888;15.544;2024-02-26T06:21:59;38.23;;;31.80;;
72635;SDS011;60679;48.888;15.544;2024-02-26T06:24:24;64.37;;;42.30;;
72635;SDS011;60679;48.888;15.544;2024-02-26T06:26:50;61.95;;;41.20;;
72635;SDS011;60679;48.888;15.544;2024-02-26T06:29:15;86.70;;;48.15;;
72635;SDS011;60679;48.888;15.544;2024-02-26T06:31:40;34.87;;;30.57;;
72635;SDS011;60679;48.888;15.544;2024-02-26T06:34:08;32.28;;;28.15;;
72635;SDS011;60679;48.888;15.544;2024-02-26T06:36:33;51.10;;;37.20;;
72635;SDS011;60679;48.888;15.544;2024-02-26T06:38:59;29.50;;;25.67;;
72635;SDS011;60679;48.888;15.544;2024-02-26T06:41:25;33.37;;;29.50;;
72635;SDS011;60679;48.888;15.544;2024-02-26T06:43:53;33.20;;;29.60;;
72635;SDS011;60679;48.888;15.544;2024-02-26T06:46:18;32.72;;;29.13;;
72635;SDS011;60679;48.888;15.544;2024-02-26T06:48:44;34.23;;;29.70;;
72635;SDS011;60679;48.888;15.544;2024-02-26T06:51:09;40.20;;;32.87;;
72635;SDS011;60679;48.888;15.544;2024-02-26T06:53:35;42.63;;;34.07;;
72635;SDS011;60679;48.888;15.544;2024-02-26T06:56:00;40.25;;;32.40;;
72635;SDS011;60679;48.888;15.544;2024-02-26T06:58:25;47.88;;;35.45;;
72635;SDS011;60679;48.888;15.544;2024-02-26T07:00:51;81.87;;;46.60;;
72635;SDS011;60679;48.888;15.544;2024-02-26T07:03:16;119.83;;;58.50;;
72635;SDS011;60679;48.888;15.544;2024-02-26T07:05:42;133.77;;;62.17;;
72635;SDS011;60679;48.888;15.544;2024-02-26T07:08:09;119.88;;;57.97;;
72635;SDS011;60679;48.888;15.544;2024-02-26T07:10:34;117.73;;;57.13;;
72635;SDS011;60679;48.888;15.544;2024-02-26T07:13:00;125.23;;;59.60;;
72635;SDS011;60679;48.888;15.544;2024-02-26T07:15:25;145.70;;;66.60;;
72635;SDS011;60679;48.888;15.544;2024-02-26T07:17:51;148.18;;;66.72;;
72635;SDS011;60679;48.888;15.544;2024-02-26T07:20:16;145.33;;;64.97;;
72635;SDS011;60679;48.888;15.544;2024-02-26T07:22:43;142.05;;;64.60;;
72635;SDS011;60679;48.888;15.544;2024-02-26T07:25:08;159.73;;;70.70;;
72635;SDS011;60679;48.888;15.544;2024-02-26T07:27:38;165.80;;;73.18;;
72635;SDS011;60679;48.888;15.544;2024-02-26T07:30:04;152.63;;;67.63;;
72635;SDS011;60679;48.888;15.544;2024-02-26T07:32:30;154.57;;;68.80;;
72635;SDS011;60679;48.888;15.544;2024-02-26T07:34:55;161.57;;;73.05;;
72635;SDS011;60679;48.888;15.544;2024-02-26T07:37:20;141.88;;;64.80;;
72635;SDS011;60679;48.888;15.544;2024-02-26T07:39:46;139.43;;;63.70;;
72635;SDS011;60679;48.888;15.544;2024-02-26T07:42:11;115.37;;;56.60;;
72635;SDS011;60679;48.888;15.544;2024-02-26T07:44:37;113.27;;;56.50;;
72635;SDS011;60679;48.888;15.544;2024-02-26T07:47:02;121.67;;;59.03;;
72635;SDS011;60679;48.888;15.544;2024-02-26T07:49:28;150.20;;;68.68;;
72635;SDS011;60679;48.888;15.544;2024-02-26T07:51:53;109.03;;;54.47;;
72635;SDS011;60679;48.888;15.544;2024-02-26T07:54:19;87.45;;;49.53;;
72635;SDS011;60679;48.888;15.544;2024-02-26T07:56:45;180.70;;;79.23;;
72635;SDS011;60679;48.888;15.544;2024-02-26T07:59:10;64.50;;;42.00;;
72635;SDS011;60679;48.888;15.544;2024-02-26T08:01:35;155.00;;;70.00;;
72635;SDS011;60679;48.888;15.544;2024-02-26T08:04:06;163.23;;;73.35;;
72635;SDS011;60679;48.888;15.544;2024-02-26T08:06:31;123.97;;;59.17;;
72635;SDS011;60679;48.888;15.544;2024-02-26T08:08:57;98.17;;;51.73;;
72635;SDS011;60679;48.888;15.544;2024-02-26T08:11:22;64.22;;;41.72;;
72635;SDS011;60679;48.888;15.544;2024-02-26T08:13:48;79.65;;;46.38;;
72635;SDS011;60679;48.888;15.544;2024-02-26T08:16:13;22.93;;;20.43;;
72635;SDS011;60679;48.888;15.544;2024-02-26T08:18:38;23.37;;;20.87;;
72635;SDS011;60679;48.888;15.544;2024-02-26T08:21:04;25.48;;;22.65;;
72635;SDS011;60679;48.888;15.544;2024-02-26T08:23:30;26.03;;;22.60;;
72635;SDS011;60679;48.888;15.544;2024-02-26T08:25:56;30.40;;;26.58;;
72635;SDS011;60679;48.888;15.544;2024-02-26T08:28:21;41.20;;;33.03;;
72635;SDS011;60679;48.888;15.544;2024-02-26T08:30:47;37.97;;;32.13;;
72635;SDS011;60679;48.888;15.544;2024-02-26T08:33:12;48.53;;;35.37;;
72635;SDS011;60679;48.888;15.544;2024-02-26T08:35:38;50.03;;;35.90;;
72635;SDS011;60679;48.888;15.544;2024-02-26T08:38:04;51.07;;;37.47;;
72635;SDS011;60679;48.888;15.544;2024-02-26T08:40:29;57.87;;;39.80;;
72635;SDS011;60679;48.888;15.544;2024-02-26T08:42:55;62.10;;;41.45;;
72635;SDS011;60679;48.888;15.544;2024-02-26T08:45:23;80.97;;;47.67;;
72635;SDS011;60679;48.888;15.544;2024-02-26T08:47:48;56.65;;;39.60;;
72635;SDS011;60679;48.888;15.544;2024-02-26T08:50:14;67.17;;;43.13;;
72635;SDS011;60679;48.888;15.544;2024-02-26T08:52:39;73.57;;;45.13;;
72635;SDS011;60679;48.888;15.544;2024-02-26T08:55:05;89.38;;;49.10;;
72635;SDS011;60679;48.888;15.544;2024-02-26T08:57:33;92.93;;;50.33;;
72635;SDS011;60679;48.888;15.544;2024-02-26T08:59:59;115.30;;;56.53;;
72635;SDS011;60679;48.888;15.544;2024-02-26T09:02:25;66.47;;;43.08;;
72635;SDS011;60679;48.888;15.544;2024-02-26T09:04:51;127.43;;;61.72;;
72635;SDS011;60679;48.888;15.544;2024-02-26T09:07:19;95.53;;;51.85;;
72635;SDS011;60679;48.888;15.544;2024-02-26T09:09:44;121.53;;;58.75;;
72635;SDS011;60679;48.888;15.544;2024-02-26T09:12:10;98.37;;;52.07;;
72635;SDS011;60679;48.888;15.544;2024-02-26T09:14:35;96.00;;;51.07;;
72635;SDS011;60679;48.888;15.544;2024-02-26T09:17:01;86.40;;;49.83;;
72635;SDS011;60679;48.888;15.544;2024-02-26T09:19:26;91.60;;;49.40;;
72635;SDS011;60679;48.888;15.544;2024-02-26T09:21:52;25.88;;;21.77;;
72635;SDS011;60679;48.888;15.544;2024-02-26T09:24:22;52.63;;;37.50;;
72635;SDS011;60679;48.888;15.544;2024-02-26T09:26:48;111.47;;;57.63;;
72635;SDS011;60679;48.888;15.544;2024-02-26T09:29:13;101.93;;;53.70;;
72635;SDS011;60679;48.888;15.544;2024-02-26T09:31:39;35.23;;;27.43;;
72635;SDS011;60679;48.888;15.544;2024-02-26T09:34:06;16.13;;;7.65;;
72635;SDS011;60679;48.888;15.544;2024-02-26T09:36:32;12.60;;;5.75;;
72635;SDS011;60679;48.888;15.544;2024-02-26T09:38:58;64.53;;;41.88;;
72635;SDS011;60679;48.888;15.544;2024-02-26T09:41:23;62.22;;;41.78;;
72635;SDS011;60679;48.888;15.544;2024-02-26T09:43:52;75.65;;;45.47;;
72635;SDS011;60679;48.888;15.544;2024-02-26T09:46:22;109.57;;;55.40;;
72635;SDS011;60679;48.888;15.544;2024-02-26T09:48:48;89.70;;;50.85;;
72635;SDS011;60679;48.888;15.544;2024-02-26T09:51:14;92.30;;;50.97;;
72635;SDS011;60679;48.888;15.544;2024-02-26T09:53:42;144.75;;;64.95;;
72635;SDS011;60679;48.888;15.544;2024-02-26T09:56:10;124.57;;;59.47;;
72635;SDS011;60679;48.888;15.544;2024-02-26T09:58:37;75.25;;;46.38;;
72635;SDS011;60679;48.888;15.544;2024-02-26T10:01:11;97.30;;;52.58;;
72635;SDS011;60679;48.888;15.544;2024-02-26T10:03:41;33.03;;;25.33;;
72635;SDS011;60679;48.888;15.544;2024-02-26T10:06:07;62.95;;;42.65;;
72635;SDS011;60679;48.888;15.544;2024-02-26T10:08:34;81.38;;;47.92;;
72635;SDS011;60679;48.888;15.544;2024-02-26T10:11:00;53.38;;;36.75;;
72635;SDS011;60679;48.888;15.544;2024-02-26T10:13:26;67.25;;;44.83;;
72635;SDS011;60679;48.888;15.544;2024-02-26T10:15:51;61.05;;;42.25;;
72635;SDS011;60679;48.888;15.544;2024-02-26T10:18:17;59.50;;;42.17;;
72635;SDS011;60679;48.888;15.544;2024-02-26T10:20:45;25.42;;;20.33;;
72635;SDS011;60679;48.888;15.544;2024-02-26T10:23:25;37.27;;;31.30;;
72635;SDS011;60679;48.888;15.544;2024-02-26T10:25:54;43.30;;;33.97;;
72635;SDS011;60679;48.888;15.544;2024-02-26T10:28:20;50.78;;;38.38;;
72635;SDS011;60679;48.888;15.544;2024-02-26T10:30:45;44.90;;;35.53;;
72635;SDS011;60679;48.888;15.544;2024-02-26T10:33:11;66.45;;;43.20;;
72635;SDS011;60679;48.888;15.544;2024-02-26T10:35:39;68.20;;;44.13;;
72635;SDS011;60679;48.888;15.544;2024-02-26T10:38:10;17.73;;;11.43;;
72635;SDS011;60679;48.888;15.544;2024-02-26T10:40:35;66.23;;;42.97;;
72635;SDS011;60679;48.888;15.544;2024-02-26T10:43:00;120.70;;;59.57;;
72635;SDS011;60679;48.888;15.544;2024-02-26T10:45:27;66.60;;;43.83;;
72635;SDS011;60679;48.888;15.544;2024-02-26T10:47:52;65.50;;;43.50;;
72635;SDS011;60679;48.888;15.544;2024-02-26T10:50:19;56.53;;;39.90;;
72635;SDS011;60679;48.888;15.544;2024-02-26T10:52:44;38.85;;;30.88;;
72635;SDS011;60679;48.888;15.544;2024-02-26T10:55:13;53.63;;;39.27;;
72635;SDS011;60679;48.888;15.544;2024-02-26T10:57:43;31.05;;;25.80;;
72635;SDS011;60679;48.888;15.544;2024-02-26T11:00:13;57.45;;;40.70;;
72635;SDS011;60679;48.888;15.544;2024-02-26T11:02:40;67.73;;;44.07;;
72635;SDS011;60679;48.888;15.544;2024-02-26T11:05:07;64.55;;;42.75;;
72635;SDS011;60679;48.888;15.544;2024-02-26T11:07:36;40.83;;;32.58;;
72635;SDS011;60679;48.888;15.544;2024-02-26T11:10:02;56.75;;;40.20;;
72635;SDS011;60679;48.888;15.544;2024-02-26T11:12:29;46.15;;;36.42;;
72635;SDS011;60679;48.888;15.544;2024-02-26T11:14:56;17.30;;;5.57;;
72635;SDS011;60679;48.888;15.544;2024-02-26T11:17:26;24.50;;;18.48;;
72635;SDS011;60679;48.888;15.544;2024-02-26T11:19:55;19.13;;;9.52;;
72635;SDS011;60679;48.888;15.544;2024-02-26T11:22:21;76.00;;;46.05;;
72635;SDS011;60679;48.888;15.544;2024-02-26T11:24:47;59.90;;;42.57;;
72635;SDS011;60679;48.888;15.544;2024-02-26T11:27:14;52.25;;;38.80;;
72635;SDS011;60679;48.888;15.544;2024-02-26T11:29:50;57.47;;;40.30;;
72635;SDS011;60679;48.888;15.544;2024-02-26T11:32:17;78.78;;;49.25;;
72635;SDS011;60679;48.888;15.544;2024-02-26T11:34:43;41.33;;;33.25;;
72635;SDS011;60679;48.888;15.544;2024-02-26T11:37:10;38.00;;;33.15;;
72635;SDS011;60679;48.888;15.544;2024-02-26T11:39:37;58.28;;;42.72;;
72635;SDS011;60679;48.888;15.544;2024-02-26T11:42:07;19.48;;;13.25;;
72635;SDS011;60679;48.888;15.544;2024-02-26T11:44:34;23.92;;;19.42;;
72635;SDS011;60679;48.888;15.544;2024-02-26T11:47:10;28.63;;;25.35;;
72635;SDS011;60679;48.888;15.544;2024-02-26T11:49:36;26.02;;;20.67;;
72635;SDS011;60679;48.888;15.544;2024-02-26T11:52:04;17.43;;;12.17;;
72635;SDS011;60679;48.888;15.544;2024-02-26T11:57:03;15.10;;;5.40;;
72635;SDS011;60679;48.888;15.544;2024-02-26T11:59:38;11.60;;;4.47;;
72635;SDS011;60679;48.888;15.544;2024-02-26T12:02:05;14.50;;;5.87;;
72635;SDS011;60679;48.888;15.544;2024-02-26T12:04:32;10.82;;;3.90;;
72635;SDS011;60679;48.888;15.544;2024-02-26T12:07:02;12.37;;;4.90;;
72635;SDS011;60679;48.888;15.544;2024-02-26T12:09:32;14.00;;;4.75;;
72635;SDS011;60679;48.888;15.544;2024-02-26T12:12:07;9.93;;;3.95;;
72635;SDS011;60679;48.888;15.544;2024-02-26T12:14:37;12.65;;;5.05;;
72635;SDS011;60679;48.888;15.544;2024-02-26T12:17:23;12.98;;;5.30;;
72635;SDS011;60679;48.888;15.544;2024-02-26T12:19:49;11.40;;;4.43;;
72635;SDS011;60679;48.888;15.544;2024-02-26T12:22:16;11.35;;;4.43;;
72635;SDS011;60679;48.888;15.544;2024-02-26T12:24:42;17.23;;;5.47;;
72635;SDS011;60679;48.888;15.544;2024-02-26T12:27:11;12.82;;;5.00;;
72635;SDS011;60679;48.888;15.544;2024-02-26T12:29:40;9.10;;;3.28;;
72635;SDS011;60679;48.888;15.544;2024-02-26T12:32:05;10.47;;;4.33;;
72635;SDS011;60679;48.888;15.544;2024-02-26T12:34:31;12.85;;;4.97;;
72635;SDS011;60679;48.888;15.544;2024-02-26T12:36:57;11.27;;;3.93;;
72635;SDS011;60679;48.888;15.544;2024-02-26T12:39:23;10.75;;;4.10;;
72635;SDS011;60679;48.888;15.544;2024-02-26T12:41:49;11.40;;;3.87;;
72635;SDS011;60679;48.888;15.544;2024-02-26T12:44:17;10.07;;;3.70;;
72635;SDS011;60679;48.888;15.544;2024-02-26T12:46:43;12.10;;;4.25;;
72635;SDS011;60679;48.888;15.544;2024-02-26T12:49:10;9.63;;;3.57;;
72635;SDS011;60679;48.888;15.544;2024-02-26T12:51:41;13.02;;;5.22;;
72635;SDS011;60679;48.888;15.544;2024-02-26T12:54:07;12.53;;;4.07;;
72635;SDS011;60679;48.888;15.544;2024-02-26T12:56:34;8.55;;;3.33;;
72635;SDS011;60679;48.888;15.544;2024-02-26T12:58:59;11.32;;;4.18;;
72635;SDS011;60679;48.888;15.544;2024-02-26T13:01:25;10.07;;;3.67;;
72635;SDS011;60679;48.888;15.544;2024-02-26T13:03:51;13.02;;;5.50;;
72635;SDS011;60679;48.888;15.544;2024-02-26T13:06:18;15.45;;;5.95;;
72635;SDS011;60679;48.888;15.544;2024-02-26T13:08:45;11.23;;;4.88;;
72635;SDS011;60679;48.888;15.544;2024-02-26T13:11:11;12.17;;;4.77;;
72635;SDS011;60679;48.888;15.544;2024-02-26T13:13:37;12.20;;;4.72;;
72635;SDS011;60679;48.888;15.544;2024-02-26T13:16:03;12.37;;;4.90;;
72635;SDS011;60679;48.888;15.544;2024-02-26T13:18:30;11.60;;;4.65;;
72635;SDS011;60679;48.888;15.544;2024-02-26T13:21:08;13.57;;;5.07;;
72635;SDS011;60679;48.888;15.544;2024-02-26T13:23:34;8.93;;;3.30;;
72635;SDS011;60679;48.888;15.544;2024-02-26T13:26:00;14.43;;;4.65;;
72635;SDS011;60679;48.888;15.544;2024-02-26T13:28:25;15.43;;;4.77;;
72635;SDS011;60679;48.888;15.544;2024-02-26T13:30:56;11.30;;;4.30;;
72635;SDS011;60679;48.888;15.544;2024-02-26T13:33:23;14.43;;;5.30;;
72635;SDS011;60679;48.888;15.544;2024-02-26T13:35:49;15.90;;;4.97;;
72635;SDS011;60679;48.888;15.544;2024-02-26T13:38:17;12.00;;;4.82;;
72635;SDS011;60679;48.888;15.544;2024-02-26T13:40:43;15.60;;;5.45;;
72635;SDS011;60679;48.888;15.544;2024-02-26T13:43:08;16.07;;;5.07;;
72635;SDS011;60679;48.888;15.544;2024-02-26T13:45:36;12.18;;;4.90;;
72635;SDS011;60679;48.888;15.544;2024-02-26T13:48:03;13.17;;;5.30;;
72635;SDS011;60679;48.888;15.544;2024-02-26T13:50:30;18.65;;;5.97;;
72635;SDS011;60679;48.888;15.544;2024-02-26T13:52:55;15.10;;;5.20;;
72635;SDS011;60679;48.888;15.544;2024-02-26T13:55:22;13.13;;;5.18;;
72635;SDS011;60679;48.888;15.544;2024-02-26T13:57:51;16.75;;;6.28;;
72635;SDS011;60679;48.888;15.544;2024-02-26T14:00:18;12.73;;;4.65;;
72635;SDS011;60679;48.888;15.544;2024-02-26T14:02:44;12.37;;;4.80;;